createdAt,value
2023-05-09T00:00:07.674Z,15.58
2023-05-09T00:01:14.201Z,15.75
2023-05-09T00:02:17.904Z,15.25
2023-05-09T00:03:21.833Z,15.12
2023-05-09T00:04:26.159Z,14.69
2023-05-09T00:05:30.487Z,15.14
2023-05-09T00:06:34.272Z,15.64
2023-05-09T00:07:37.483Z,14.90
2023-05-09T00:08:41.925Z,14.79
2023-05-09T00:09:45.092Z,15.25
2023-05-09T00:10:48.308Z,15.28
2023-05-09T00:11:51.616Z,15.87
2023-05-09T00:12:54.970Z,15.70
2023-05-09T00:13:59.277Z,14.95
2023-05-09T00:15:02.569Z,15.13
2023-05-09T00:16:06.665Z,15.51
2023-05-09T00:17:10.368Z,14.27
2023-05-09T00:18:15.172Z,15.48
2023-05-09T00:19:18.421Z,15.38
2023-05-09T00:20:22.452Z,15.62
2023-05-09T00:21:26.011Z,15.34
2023-05-09T00:22:29.293Z,15.46
2023-05-09T00:23:32.468Z,14.85
2023-05-09T00:24:35.854Z,15.47
2023-05-09T00:25:39.051Z,15.10
2023-05-09T00:26:42.279Z,14.88
2023-05-09T00:27:45.778Z,14.85
2023-05-09T00:28:49.527Z,15.28
2023-05-09T00:29:52.714Z,15.01
2023-05-09T00:30:56.356Z,15.17
2023-05-09T00:31:59.632Z,15.37
2023-05-09T00:33:02.916Z,14.74
2023-05-09T00:34:06.415Z,14.91
2023-05-09T00:35:10.757Z,14.13
2023-05-09T00:36:13.976Z,14.59
2023-05-09T00:37:19.003Z,14.75
2023-05-09T00:38:23.427Z,14.56
2023-05-09T00:39:26.862Z,14.63
2023-05-09T00:40:30.823Z,14.54
2023-05-09T00:41:34.135Z,14.94
2023-05-09T00:42:37.739Z,15.01
2023-05-09T00:43:41.020Z,15.56
2023-05-09T00:44:44.528Z,15.37
2023-05-09T00:45:47.992Z,14.88
2023-05-09T00:46:51.643Z,14.44
2023-05-09T00:47:55.212Z,14.57
2023-05-09T00:48:58.619Z,14.55
2023-05-09T00:50:03.677Z,15.15
2023-05-09T00:51:06.959Z,14.47
2023-05-09T00:52:10.701Z,14.97
2023-05-09T00:53:14.537Z,14.74
2023-05-09T00:54:17.981Z,14.49
2023-05-09T00:55:21.275Z,14.20
2023-05-09T00:56:24.741Z,14.57
2023-05-09T00:57:28.050Z,14.82
2023-05-09T00:58:31.637Z,13.75
2023-05-09T00:59:34.863Z,14.05
2023-05-09T01:00:38.835Z,15.02
2023-05-09T01:01:42.281Z,14.65
2023-05-09T01:02:54.237Z,14.76
2023-05-09T01:03:57.776Z,15.13
2023-05-09T01:05:01.161Z,15.26
2023-05-09T01:06:47.845Z,15.26
2023-05-09T01:08:16.763Z,14.56
2023-05-09T01:09:33.620Z,14.81
2023-05-09T01:10:46.932Z,15.07
2023-05-09T01:12:14.772Z,14.61
2023-05-09T01:13:29.182Z,15.23
2023-05-09T01:15:02.823Z,14.71
2023-05-09T01:16:17.601Z,15.82
2023-05-09T01:17:42.793Z,15.37
2023-05-09T01:18:46.100Z,14.61
2023-05-09T01:19:59.997Z,15.66
2023-05-09T01:21:09.651Z,15.13
2023-05-09T01:22:17.133Z,14.96
2023-05-09T01:23:44.952Z,14.22
2023-05-09T01:25:08.791Z,14.16
2023-05-09T01:26:24.044Z,14.52
2023-05-09T01:27:50.526Z,14.67
2023-05-09T01:29:25.299Z,14.58
2023-05-09T01:30:31.968Z,14.12
2023-05-09T01:31:41.724Z,14.56
2023-05-09T01:32:50.853Z,13.36
2023-05-09T01:34:00.694Z,13.54
2023-05-09T01:35:07.628Z,13.20
2023-05-09T01:36:18.766Z,14.40
2023-05-09T01:37:31.233Z,14.16
2023-05-09T01:38:38.568Z,14.07
2023-05-09T01:39:46.083Z,14.28
2023-05-09T01:40:55.137Z,14.05
2023-05-09T01:42:04.369Z,14.10
2023-05-09T01:43:11.737Z,13.77
2023-05-09T01:44:17.828Z,13.76
2023-05-09T01:45:22.981Z,13.35
2023-05-09T01:46:28.093Z,13.54
2023-05-09T01:47:31.954Z,13.43
2023-05-09T01:48:38.702Z,13.67
2023-05-09T01:49:43.771Z,13.13
2023-05-09T01:50:49.858Z,13.64
2023-05-09T01:51:57.316Z,14.19
2023-05-09T01:53:02.947Z,14.03
2023-05-09T01:54:07.685Z,13.40
2023-05-09T01:55:13.477Z,13.72
2023-05-09T01:56:19.720Z,13.78
2023-05-09T01:57:25.455Z,14.00
2023-05-09T01:58:29.742Z,13.77
2023-05-09T01:59:35.544Z,13.75
2023-05-09T02:00:39.905Z,13.93
2023-05-09T02:01:45.692Z,14.12
2023-05-09T02:02:51.296Z,13.98
2023-05-09T02:03:55.459Z,13.91
2023-05-09T02:05:00.318Z,13.64
2023-05-09T02:06:05.822Z,14.16
2023-05-09T02:07:09.688Z,13.13
2023-05-09T02:08:16.103Z,13.40
2023-05-09T02:09:22.610Z,12.95
2023-05-09T02:10:28.619Z,13.43
2023-05-09T02:11:31.993Z,14.09
2023-05-09T02:12:35.795Z,13.20
2023-05-09T02:13:39.464Z,13.03
2023-05-09T02:14:42.950Z,13.19
2023-05-09T02:15:46.762Z,13.40
2023-05-09T02:16:50.596Z,13.18
2023-05-09T02:17:53.903Z,12.58
2023-05-09T02:18:57.242Z,12.24
2023-05-09T02:20:00.524Z,12.41
2023-05-09T02:21:04.967Z,12.17
2023-05-09T02:22:08.518Z,12.46
2023-05-09T02:23:12.734Z,11.95
2023-05-09T02:24:16.368Z,12.41
2023-05-09T02:25:19.871Z,14.46
2023-05-09T02:26:23.489Z,14.42
2023-05-09T02:27:28.777Z,14.63
2023-05-09T02:28:32.581Z,14.09
2023-05-09T02:29:42.422Z,14.16
2023-05-09T02:30:48.242Z,13.46
2023-05-09T02:31:53.883Z,12.93
2023-05-09T02:33:07.033Z,12.13
2023-05-09T02:34:14.149Z,12.25
2023-05-09T02:35:19.255Z,12.50
2023-05-09T02:36:24.466Z,11.89
2023-05-09T02:37:28.728Z,12.13
2023-05-09T02:38:32.413Z,10.44
2023-05-09T02:39:37.105Z,10.65
2023-05-09T02:40:43.188Z,10.47
2023-05-09T02:41:50.480Z,11.41
2023-05-09T02:42:54.896Z,12.43
2023-05-09T02:43:58.235Z,13.28
2023-05-09T02:45:01.666Z,14.11
2023-05-09T02:46:05.144Z,13.29
2023-05-09T02:47:09.937Z,12.31
2023-05-09T02:48:13.208Z,12.27
2023-05-09T02:49:30.900Z,11.98
2023-05-09T02:50:36.575Z,11.48
2023-05-09T02:51:39.890Z,12.60
2023-05-09T02:52:43.141Z,11.62
2023-05-09T02:53:46.973Z,12.32
2023-05-09T02:54:50.165Z,11.90
2023-05-09T02:55:54.594Z,12.15
2023-05-09T02:56:57.996Z,12.44
2023-05-09T02:58:12.621Z,11.86
2023-05-09T02:59:19.660Z,11.65
2023-05-09T03:00:24.534Z,11.26
2023-05-09T03:01:27.746Z,11.94
2023-05-09T03:02:31.499Z,11.24
2023-05-09T03:03:35.411Z,12.03
2023-05-09T03:04:40.803Z,12.14
2023-05-09T03:05:44.329Z,11.91
2023-05-09T03:06:47.610Z,11.94
2023-05-09T03:07:52.078Z,11.99
2023-05-09T03:08:55.277Z,11.67
2023-05-09T03:09:59.741Z,11.27
2023-05-09T03:11:03.465Z,12.36
2023-05-09T03:12:07.488Z,12.31
2023-05-09T03:13:12.127Z,13.01
2023-05-09T03:14:16.047Z,12.46
2023-05-09T03:15:19.462Z,11.80
2023-05-09T03:16:24.032Z,12.01
2023-05-09T03:17:28.940Z,11.79
2023-05-09T03:18:32.278Z,11.94
2023-05-09T03:19:36.467Z,11.23
2023-05-09T03:20:39.912Z,10.96
2023-05-09T03:21:43.301Z,11.21
2023-05-09T03:22:46.553Z,11.53
2023-05-09T03:23:49.888Z,11.23
2023-05-09T03:24:53.126Z,10.52
2023-05-09T03:25:56.435Z,10.66
2023-05-09T03:27:00.033Z,10.67
2023-05-09T03:28:03.917Z,10.75
2023-05-09T03:29:07.303Z,10.45
2023-05-09T03:30:11.102Z,10.57
2023-05-09T03:31:14.325Z,10.62
2023-05-09T03:32:17.677Z,10.16
2023-05-09T03:33:21.322Z,11.08
2023-05-09T03:34:24.981Z,10.47
2023-05-09T03:35:28.488Z,10.30
2023-05-09T03:36:33.057Z,10.11
2023-05-09T03:37:37.440Z,9.59
2023-05-09T03:38:42.370Z,9.85
2023-05-09T03:39:45.822Z,9.75
2023-05-09T03:40:49.076Z,9.55
2023-05-09T03:41:52.362Z,10.06
2023-05-09T03:42:55.823Z,9.43
2023-05-09T03:43:58.994Z,9.40
2023-05-09T03:45:02.169Z,9.48
2023-05-09T03:46:05.660Z,9.86
2023-05-09T03:47:09.103Z,10.51
2023-05-09T03:48:15.789Z,9.61
2023-05-09T03:49:24.133Z,9.72
2023-05-09T03:50:30.492Z,10.28
2023-05-09T03:51:35.319Z,10.38
2023-05-09T03:52:40.924Z,10.48
2023-05-09T03:53:46.778Z,10.92
2023-05-09T03:54:51.091Z,10.81
2023-05-09T03:55:54.483Z,10.29
2023-05-09T03:56:58.070Z,10.01
2023-05-09T03:58:01.388Z,10.27
2023-05-09T03:59:06.161Z,9.96
2023-05-09T04:00:11.130Z,9.22
2023-05-09T04:01:17.402Z,10.57
2023-05-09T04:02:22.355Z,10.34
2023-05-09T04:03:26.044Z,8.98
2023-05-09T04:04:30.853Z,9.64
2023-05-09T04:05:36.070Z,9.60
2023-05-09T04:06:41.025Z,9.49
2023-05-09T04:07:46.498Z,9.70
2023-05-09T04:08:51.706Z,9.06
2023-05-09T04:09:59.699Z,8.94
2023-05-09T04:11:02.925Z,8.61
2023-05-09T04:12:06.452Z,8.91
2023-05-09T04:13:09.782Z,9.03
2023-05-09T04:14:13.368Z,9.51
2023-05-09T04:15:16.992Z,9.07
2023-05-09T04:16:20.559Z,9.03
2023-05-09T04:17:23.768Z,9.28
2023-05-09T04:18:26.983Z,9.07
2023-05-09T04:19:30.196Z,8.88
2023-05-09T04:20:33.439Z,8.19
2023-05-09T04:21:38.354Z,8.49
2023-05-09T04:22:42.636Z,8.93
2023-05-09T04:23:47.342Z,8.81
2023-05-09T04:24:52.400Z,8.96
2023-05-09T04:25:55.994Z,8.87
2023-05-09T04:26:59.285Z,8.91
2023-05-09T04:28:03.138Z,8.98
2023-05-09T04:29:07.141Z,9.09
2023-05-09T04:30:12.185Z,8.49
2023-05-09T04:31:15.839Z,8.37
2023-05-09T04:32:24.034Z,8.24
2023-05-09T04:33:27.456Z,8.63
2023-05-09T04:34:36.343Z,8.34
2023-05-09T04:35:46.855Z,9.14
2023-05-09T04:36:50.311Z,8.83
2023-05-09T04:37:53.705Z,8.34
2023-05-09T04:38:56.904Z,9.50
2023-05-09T04:40:02.445Z,8.98
2023-05-09T04:41:13.352Z,8.50
2023-05-09T04:42:16.663Z,8.80
2023-05-09T04:43:20.001Z,9.07
2023-05-09T04:44:24.162Z,9.46
2023-05-09T04:45:27.499Z,9.32
2023-05-09T04:46:31.579Z,9.23
2023-05-09T04:47:35.125Z,8.87
2023-05-09T04:48:39.324Z,8.73
2023-05-09T04:49:42.605Z,9.39
2023-05-09T04:50:46.006Z,8.95
2023-05-09T04:51:49.242Z,9.24
2023-05-09T04:52:52.657Z,9.06
2023-05-09T04:53:56.691Z,9.27
2023-05-09T04:55:06.038Z,8.98
2023-05-09T04:56:14.572Z,8.96
2023-05-09T04:57:19.149Z,9.70
2023-05-09T04:58:28.545Z,9.44
2023-05-09T04:59:33.546Z,9.24
2023-05-09T05:00:36.914Z,9.07
2023-05-09T05:01:40.731Z,9.53
2023-05-09T05:02:44.192Z,9.14
2023-05-09T05:03:47.468Z,8.81
2023-05-09T05:04:51.388Z,8.82
2023-05-09T05:05:55.313Z,8.23
2023-05-09T05:06:58.622Z,8.05
2023-05-09T05:08:02.136Z,7.48
2023-05-09T05:09:10.795Z,7.21
2023-05-09T05:10:14.582Z,7.41
2023-05-09T05:11:22.575Z,7.23
2023-05-09T05:12:26.603Z,6.71
2023-05-09T05:13:29.985Z,6.43
2023-05-09T05:14:36.272Z,6.07
2023-05-09T05:15:41.500Z,6.49
2023-05-09T05:16:45.546Z,6.28
2023-05-09T05:17:48.933Z,6.63
2023-05-09T05:18:55.182Z,6.44
2023-05-09T05:19:59.403Z,6.14
2023-05-09T05:21:04.648Z,6.66
2023-05-09T05:22:08.011Z,6.36
2023-05-09T05:23:13.677Z,6.62
2023-05-09T05:24:16.934Z,6.44
2023-05-09T05:25:21.718Z,6.13
2023-05-09T05:26:27.449Z,5.92
2023-05-09T05:27:31.400Z,6.29
2023-05-09T05:28:34.791Z,6.14
2023-05-09T05:29:39.002Z,6.48
2023-05-09T05:30:42.757Z,6.27
2023-05-09T05:31:46.184Z,6.27
2023-05-09T05:32:49.526Z,6.36
2023-05-09T05:33:55.582Z,5.87
2023-05-09T05:34:59.193Z,6.09
2023-05-09T05:36:02.576Z,6.45
2023-05-09T05:37:06.343Z,6.60
2023-05-09T05:38:09.932Z,6.51
2023-05-09T05:39:13.660Z,6.64
2023-05-09T05:40:17.585Z,6.61
2023-05-09T05:41:24.250Z,6.50
2023-05-09T05:42:27.550Z,6.37
2023-05-09T05:43:31.045Z,6.48
2023-05-09T05:44:34.401Z,6.44
2023-05-09T05:45:38.974Z,6.54
2023-05-09T05:46:45.071Z,6.46
2023-05-09T05:47:48.466Z,6.39
2023-05-09T05:48:52.195Z,6.26
2023-05-09T05:49:55.480Z,5.98
2023-05-09T05:50:59.535Z,6.32
2023-05-09T05:52:06.255Z,6.30
2023-05-09T05:53:09.480Z,6.15
2023-05-09T05:54:13.522Z,5.97
2023-05-09T05:55:16.890Z,6.18
2023-05-09T05:56:20.444Z,5.87
2023-05-09T05:57:23.844Z,5.61
2023-05-09T05:58:27.281Z,5.05
2023-05-09T05:59:30.675Z,5.33
2023-05-09T06:00:34.093Z,5.74
2023-05-09T06:01:41.508Z,5.86
2023-05-09T06:02:45.983Z,5.30
2023-05-09T06:03:56.653Z,5.24
2023-05-09T06:05:04.583Z,5.02
2023-05-09T06:06:08.008Z,5.03
2023-05-09T06:07:14.614Z,4.91
2023-05-09T06:08:18.546Z,5.33
2023-05-09T06:09:21.726Z,5.07
2023-05-09T06:10:25.030Z,4.96
2023-05-09T06:11:28.357Z,4.63
2023-05-09T06:12:32.116Z,4.68
2023-05-09T06:13:35.435Z,4.72
2023-05-09T06:14:41.446Z,4.56
2023-05-09T06:15:44.967Z,4.63
2023-05-09T06:16:48.348Z,4.61
2023-05-09T06:17:51.653Z,4.60
2023-05-09T06:18:56.106Z,4.53
2023-05-09T06:19:59.709Z,4.69
2023-05-09T06:21:02.869Z,4.38
2023-05-09T06:22:06.250Z,3.88
2023-05-09T06:23:09.536Z,4.36
2023-05-09T06:24:20.150Z,4.52
2023-05-09T06:25:31.039Z,4.72
2023-05-09T06:26:34.435Z,4.68
2023-05-09T06:27:37.617Z,5.03
2023-05-09T06:28:40.867Z,4.55
2023-05-09T06:29:44.138Z,4.65
2023-05-09T06:30:47.363Z,4.86
2023-05-09T06:31:50.657Z,4.62
2023-05-09T06:32:54.556Z,4.60
2023-05-09T06:33:58.084Z,5.01
2023-05-09T06:35:01.479Z,5.08
2023-05-09T06:36:05.074Z,4.66
2023-05-09T06:37:08.257Z,4.77
2023-05-09T06:38:11.570Z,4.98
2023-05-09T06:39:14.713Z,4.72
2023-05-09T06:40:18.579Z,4.52
2023-05-09T06:41:22.536Z,4.50
2023-05-09T06:42:25.771Z,4.28
2023-05-09T06:43:28.900Z,4.65
2023-05-09T06:44:33.322Z,4.43
2023-05-09T06:45:36.790Z,4.30
2023-05-09T06:46:39.967Z,4.29
2023-05-09T06:47:43.261Z,4.22
2023-05-09T06:48:46.517Z,4.54
2023-05-09T06:49:49.831Z,4.28
2023-05-09T06:50:53.108Z,4.64
2023-05-09T06:51:56.433Z,4.55
2023-05-09T06:52:59.575Z,4.45
2023-05-09T06:54:03.081Z,4.40
2023-05-09T06:55:06.883Z,4.76
2023-05-09T06:56:10.114Z,4.40
2023-05-09T06:57:13.262Z,3.92
2023-05-09T06:58:16.631Z,4.05
2023-05-09T06:59:19.936Z,4.77
2023-05-09T07:00:23.635Z,4.67
2023-05-09T07:01:26.894Z,4.43
2023-05-09T07:02:30.216Z,4.72
2023-05-09T07:03:33.834Z,4.78
2023-05-09T07:04:37.097Z,4.32
2023-05-09T07:05:40.283Z,4.25
2023-05-09T07:06:43.787Z,4.13
2023-05-09T07:07:47.096Z,4.32
2023-05-09T07:08:50.550Z,4.54
2023-05-09T07:10:00.659Z,4.53
2023-05-09T07:11:11.201Z,4.22
2023-05-09T07:12:14.580Z,4.32
2023-05-09T07:13:17.823Z,4.29
2023-05-09T07:14:21.515Z,4.37
2023-05-09T07:15:39.769Z,4.60
2023-05-09T07:16:44.984Z,4.60
2023-05-09T07:17:48.406Z,4.62
2023-05-09T07:18:51.740Z,4.50
2023-05-09T07:19:55.015Z,4.77
2023-05-09T07:20:58.256Z,4.67
2023-05-09T07:22:01.530Z,4.57
2023-05-09T07:23:06.630Z,4.51
2023-05-09T07:24:10.038Z,4.09
2023-05-09T07:25:13.516Z,4.07
2023-05-09T07:26:16.916Z,4.10
2023-05-09T07:27:20.185Z,4.13
2023-05-09T07:28:23.576Z,4.38
2023-05-09T07:29:26.784Z,4.25
2023-05-09T07:30:29.954Z,3.97
2023-05-09T07:31:35.287Z,4.24
2023-05-09T07:32:40.598Z,4.29
2023-05-09T07:33:44.064Z,4.12
2023-05-09T07:34:47.447Z,4.10
2023-05-09T07:35:51.083Z,3.83
2023-05-09T07:36:54.402Z,4.02
2023-05-09T07:37:58.016Z,4.19
2023-05-09T07:39:01.523Z,4.33
2023-05-09T07:40:06.801Z,3.73
2023-05-09T07:41:10.470Z,3.54
2023-05-09T07:42:14.118Z,4.07
2023-05-09T07:43:17.291Z,3.93
2023-05-09T07:44:20.500Z,3.65
2023-05-09T07:45:24.088Z,3.50
2023-05-09T07:46:27.645Z,3.87
2023-05-09T07:47:30.873Z,3.79
2023-05-09T07:48:34.145Z,3.76
2023-05-09T07:49:37.312Z,3.49
2023-05-09T07:50:41.495Z,3.52
2023-05-09T07:51:44.742Z,3.73
2023-05-09T07:52:47.955Z,3.83
2023-05-09T07:53:51.253Z,3.53
2023-05-09T07:54:55.280Z,3.64
2023-05-09T07:55:59.626Z,3.63
2023-05-09T07:57:02.879Z,3.40
2023-05-09T07:58:06.319Z,3.20
2023-05-09T07:59:09.611Z,3.34
2023-05-09T08:00:13.448Z,3.30
2023-05-09T08:01:16.915Z,3.37
2023-05-09T08:02:20.081Z,3.13
2023-05-09T08:03:23.572Z,3.29
2023-05-09T08:04:27.068Z,3.26
2023-05-09T08:05:30.482Z,3.10
2023-05-09T08:06:34.198Z,3.53
2023-05-09T08:07:37.695Z,3.37
2023-05-09T08:08:40.962Z,3.27
2023-05-09T08:09:44.190Z,3.09
2023-05-09T08:10:47.336Z,3.44
2023-05-09T08:11:50.502Z,3.36
2023-05-09T08:12:53.888Z,3.26
2023-05-09T08:13:57.094Z,3.19
2023-05-09T08:15:00.379Z,3.43
2023-05-09T08:16:03.808Z,3.37
2023-05-09T08:17:06.998Z,3.28
2023-05-09T08:18:10.826Z,3.33
2023-05-09T08:19:14.177Z,3.49
2023-05-09T08:20:18.127Z,3.12
2023-05-09T08:21:22.807Z,3.40
2023-05-09T08:22:26.383Z,3.17
2023-05-09T08:23:31.013Z,3.09
2023-05-09T08:24:34.689Z,3.31
2023-05-09T08:25:37.957Z,3.01
2023-05-09T08:26:41.089Z,3.34
2023-05-09T08:27:44.293Z,3.41
2023-05-09T08:28:47.543Z,2.87
2023-05-09T08:29:50.731Z,3.20
2023-05-09T08:30:53.951Z,3.31
2023-05-09T08:31:57.232Z,3.20
2023-05-09T08:33:00.531Z,3.17
2023-05-09T08:34:03.839Z,3.08
2023-05-09T08:35:09.562Z,3.28
2023-05-09T08:36:12.758Z,3.22
2023-05-09T08:37:16.105Z,3.55
2023-05-09T08:38:20.178Z,3.05
2023-05-09T08:39:23.567Z,3.01
2023-05-09T08:40:26.995Z,3.10
2023-05-09T08:41:36.616Z,3.02
2023-05-09T08:42:40.847Z,3.32
2023-05-09T08:43:46.294Z,3.28
2023-05-09T08:44:49.994Z,2.93
2023-05-09T08:45:59.128Z,2.91
2023-05-09T08:47:05.201Z,3.13
2023-05-09T08:48:10.726Z,3.07
2023-05-09T08:49:14.670Z,3.10
2023-05-09T08:50:18.832Z,3.12
2023-05-09T08:51:23.325Z,3.53
2023-05-09T08:52:26.992Z,3.15
2023-05-09T08:53:30.455Z,3.07
2023-05-09T08:54:34.664Z,3.18
2023-05-09T08:55:38.822Z,3.03
2023-05-09T08:56:43.335Z,3.09
2023-05-09T08:57:47.373Z,3.06
2023-05-09T08:58:51.562Z,3.15
2023-05-09T08:59:56.789Z,3.06
2023-05-09T09:01:02.172Z,3.01
2023-05-09T09:02:09.020Z,2.98
2023-05-09T09:03:12.805Z,2.94
2023-05-09T09:04:16.214Z,3.01
2023-05-09T09:05:40.216Z,3.18
2023-05-09T09:06:44.384Z,3.10
2023-05-09T09:07:48.282Z,3.06
2023-05-09T09:08:53.204Z,2.86
2023-05-09T09:09:58.600Z,2.92
2023-05-09T09:11:02.544Z,3.15
2023-05-09T09:12:10.305Z,2.83
2023-05-09T09:13:14.757Z,3.13
2023-05-09T09:14:28.357Z,3.03
2023-05-09T09:15:37.130Z,2.99
2023-05-09T09:16:43.657Z,2.92
2023-05-09T09:17:52.002Z,3.01
2023-05-09T09:18:58.696Z,3.05
2023-05-09T09:20:10.137Z,2.85
2023-05-09T09:21:17.644Z,2.54
2023-05-09T09:22:21.543Z,2.83
2023-05-09T09:23:27.168Z,2.84
2023-05-09T09:24:32.985Z,3.28
2023-05-09T09:25:36.253Z,3.13
2023-05-09T09:26:50.421Z,2.86
2023-05-09T09:27:53.722Z,3.28
2023-05-09T09:28:58.265Z,3.42
2023-05-09T09:30:11.869Z,2.94
2023-05-09T09:31:26.644Z,2.84
2023-05-09T09:32:36.445Z,2.85
2023-05-09T09:33:39.649Z,3.20
2023-05-09T09:34:42.893Z,3.00
2023-05-09T09:35:46.123Z,3.06
2023-05-09T09:36:50.282Z,3.09
2023-05-09T09:38:00.937Z,3.24
2023-05-09T09:39:05.716Z,3.26
2023-05-09T09:40:13.329Z,3.37
2023-05-09T09:41:16.721Z,3.40
2023-05-09T09:42:19.872Z,2.99
2023-05-09T09:43:32.978Z,2.98
2023-05-09T09:44:36.192Z,2.89
2023-05-09T09:45:43.155Z,3.14
2023-05-09T09:46:51.397Z,3.15
2023-05-09T09:47:55.237Z,3.00
2023-05-09T09:48:58.571Z,3.00
2023-05-09T09:50:15.072Z,3.14
2023-05-09T09:51:19.375Z,3.25
2023-05-09T09:52:26.054Z,3.26
2023-05-09T09:53:31.964Z,3.28
2023-05-09T09:54:35.363Z,3.14
2023-05-09T09:55:38.615Z,3.30
2023-05-09T09:56:44.665Z,3.56
2023-05-09T09:57:49.100Z,3.23
2023-05-09T09:59:10.511Z,3.31
2023-05-09T10:00:25.287Z,3.25
2023-05-09T10:01:28.599Z,3.12
2023-05-09T10:02:32.152Z,3.10
2023-05-09T10:03:43.779Z,3.14
2023-05-09T10:04:47.006Z,3.37
2023-05-09T10:06:03.211Z,2.89
2023-05-09T10:07:13.782Z,3.29
2023-05-09T10:08:18.344Z,3.31
2023-05-09T10:09:25.588Z,3.12
2023-05-09T10:10:30.041Z,3.02
2023-05-09T10:11:33.930Z,2.98
2023-05-09T10:12:43.585Z,3.34
2023-05-09T10:13:47.331Z,3.08
2023-05-09T10:14:50.886Z,3.24
2023-05-09T10:15:55.860Z,3.13
2023-05-09T10:17:00.818Z,2.68
2023-05-09T10:18:05.443Z,3.20
2023-05-09T10:19:10.459Z,2.88
2023-05-09T10:20:15.127Z,3.37
2023-05-09T10:21:18.550Z,3.27
2023-05-09T10:22:22.408Z,2.97
2023-05-09T10:23:26.640Z,3.04
2023-05-09T10:24:36.197Z,3.10
2023-05-09T10:25:45.191Z,3.07
2023-05-09T10:26:52.890Z,3.39
2023-05-09T10:28:02.651Z,3.30
2023-05-09T10:29:13.552Z,3.28
2023-05-09T10:30:23.171Z,3.47
2023-05-09T10:31:33.482Z,2.99
2023-05-09T10:32:53.011Z,3.10
2023-05-09T10:33:57.324Z,3.51
2023-05-09T10:35:07.871Z,3.29
2023-05-09T10:36:12.952Z,3.59
2023-05-09T10:37:17.583Z,3.55
2023-05-09T10:38:21.355Z,3.11
2023-05-09T10:39:25.385Z,3.45
2023-05-09T10:40:33.210Z,3.42
2023-05-09T10:41:38.168Z,3.16
2023-05-09T10:42:43.032Z,3.20
2023-05-09T10:43:47.538Z,3.35
2023-05-09T10:44:51.042Z,3.28
2023-05-09T10:45:55.695Z,2.91
2023-05-09T10:47:00.251Z,3.04
2023-05-09T10:48:07.854Z,2.84
2023-05-09T10:49:11.843Z,2.69
2023-05-09T10:50:16.073Z,2.78
2023-05-09T10:51:19.585Z,2.81
2023-05-09T10:52:23.861Z,2.89
2023-05-09T10:53:41.634Z,2.63
2023-05-09T10:54:44.824Z,2.54
2023-05-09T10:55:48.531Z,2.38
2023-05-09T10:56:52.230Z,2.50
2023-05-09T10:57:55.746Z,2.55
2023-05-09T10:59:00.123Z,2.80
2023-05-09T11:00:03.763Z,3.08
2023-05-09T11:01:07.765Z,3.03
2023-05-09T11:02:19.798Z,2.98
2023-05-09T11:03:25.583Z,2.62
2023-05-09T11:04:29.562Z,2.60
2023-05-09T11:05:40.497Z,2.26
2023-05-09T11:06:57.150Z,2.19
2023-05-09T11:08:26.944Z,2.04
2023-05-09T11:09:36.197Z,2.00
2023-05-09T11:10:43.832Z,2.01
2023-05-09T11:11:55.322Z,1.98
2023-05-09T11:13:01.760Z,1.96
2023-05-09T11:14:04.981Z,1.78
2023-05-09T11:15:09.780Z,1.93
2023-05-09T11:16:13.427Z,2.23
2023-05-09T11:17:22.850Z,1.83
2023-05-09T11:18:26.480Z,1.90
2023-05-09T11:20:00.602Z,1.83
2023-05-09T11:21:10.305Z,1.72
2023-05-09T11:22:15.821Z,2.09
2023-05-09T11:23:26.771Z,1.84
2023-05-09T11:24:32.413Z,1.86
2023-05-09T11:25:35.735Z,1.78
2023-05-09T11:26:40.845Z,1.72
2023-05-09T11:27:50.890Z,1.73
2023-05-09T11:28:55.479Z,1.97
2023-05-09T11:30:00.598Z,1.68
2023-05-09T11:31:12.290Z,1.94
2023-05-09T11:32:16.548Z,2.14
2023-05-09T11:33:31.672Z,2.01
2023-05-09T11:34:35.490Z,2.04
2023-05-09T11:35:38.856Z,2.13
2023-05-09T11:36:48.569Z,2.16
2023-05-09T11:38:06.914Z,2.11
2023-05-09T11:39:12.137Z,2.08
2023-05-09T11:40:18.282Z,2.37
2023-05-09T11:41:22.409Z,2.19
2023-05-09T11:42:30.112Z,2.22
2023-05-09T11:43:33.932Z,2.05
2023-05-09T11:44:37.508Z,2.16
2023-05-09T11:45:42.242Z,2.03
2023-05-09T11:46:50.128Z,2.36
2023-05-09T11:47:53.873Z,2.42
2023-05-09T11:48:57.253Z,2.03
2023-05-09T11:50:00.945Z,2.25
2023-05-09T11:51:05.326Z,2.25
2023-05-09T11:52:08.563Z,2.13
2023-05-09T11:53:13.156Z,2.08
2023-05-09T11:54:16.494Z,2.16
2023-05-09T11:55:30.668Z,2.22
2023-05-09T11:56:36.877Z,2.26
2023-05-09T11:57:45.789Z,2.47
2023-05-09T11:58:52.093Z,2.08
2023-05-09T11:59:56.166Z,2.26
2023-05-09T12:00:59.961Z,2.16
2023-05-09T12:02:08.014Z,2.41
2023-05-09T12:03:11.540Z,2.30
2023-05-09T12:04:15.066Z,2.40
2023-05-09T12:05:20.384Z,2.30
2023-05-09T12:06:23.582Z,2.43
2023-05-09T12:07:26.889Z,2.24
2023-05-09T12:08:30.226Z,2.21
2023-05-09T12:09:35.915Z,2.35
2023-05-09T12:10:40.857Z,2.36
2023-05-09T12:11:53.342Z,2.37
2023-05-09T12:12:57.755Z,2.35
2023-05-09T12:14:01.092Z,2.05
2023-05-09T12:15:08.772Z,1.95
2023-05-09T12:16:12.012Z,2.24
2023-05-09T12:17:15.485Z,2.39
2023-05-09T12:18:19.002Z,2.17
2023-05-09T12:19:25.862Z,2.13
2023-05-09T12:20:29.013Z,2.24
2023-05-09T12:21:32.345Z,2.49
2023-05-09T12:22:36.204Z,2.42
2023-05-09T12:23:39.385Z,2.41
2023-05-09T12:24:42.707Z,2.30
2023-05-09T12:26:03.684Z,2.36
2023-05-09T12:27:08.649Z,2.22
2023-05-09T12:28:12.445Z,2.63
2023-05-09T12:29:16.017Z,2.25
2023-05-09T12:30:19.622Z,2.43
2023-05-09T12:31:23.775Z,2.26
2023-05-09T12:32:32.433Z,2.05
2023-05-09T12:33:38.145Z,2.04
2023-05-09T12:34:41.916Z,2.05
2023-05-09T12:35:49.286Z,2.28
2023-05-09T12:36:52.661Z,2.39
2023-05-09T12:38:02.387Z,2.54
2023-05-09T12:39:13.904Z,2.54
2023-05-09T12:40:17.231Z,2.37
2023-05-09T12:41:36.992Z,2.58
2023-05-09T12:42:44.728Z,2.29
2023-05-09T12:43:50.606Z,2.14
2023-05-09T12:44:54.425Z,2.32
2023-05-09T12:45:59.954Z,2.22
2023-05-09T12:47:05.487Z,2.17
2023-05-09T12:48:12.185Z,2.40
2023-05-09T12:49:22.830Z,2.41
2023-05-09T12:50:37.148Z,2.41
2023-05-09T12:51:50.946Z,2.15
2023-05-09T12:53:02.533Z,2.25
2023-05-09T12:54:11.613Z,2.27
2023-05-09T12:55:15.595Z,2.34
2023-05-09T12:56:21.537Z,1.91
2023-05-09T12:57:30.187Z,2.11
2023-05-09T12:58:35.550Z,2.25
2023-05-09T12:59:44.628Z,2.22
2023-05-09T13:00:48.185Z,2.49
2023-05-09T13:01:56.167Z,2.16
2023-05-09T13:03:00.233Z,2.02
2023-05-09T13:04:06.577Z,2.24
2023-05-09T13:05:16.580Z,2.22
2023-05-09T13:06:20.065Z,2.25
2023-05-09T13:07:23.260Z,2.51
2023-05-09T13:08:27.029Z,2.76
2023-05-09T13:09:30.555Z,2.34
2023-05-09T13:10:34.580Z,2.74
2023-05-09T13:11:38.656Z,2.65
2023-05-09T13:12:45.924Z,2.64
2023-05-09T13:13:49.113Z,2.45
2023-05-09T13:14:52.859Z,2.47
2023-05-09T13:15:56.995Z,2.46
2023-05-09T13:17:00.443Z,2.28
2023-05-09T13:18:03.769Z,2.45
2023-05-09T13:19:07.096Z,2.16
2023-05-09T13:20:11.334Z,2.44
2023-05-09T13:21:14.606Z,2.53
2023-05-09T13:22:18.248Z,2.36
2023-05-09T13:23:22.960Z,2.00
2023-05-09T13:24:26.222Z,2.17
2023-05-09T13:25:29.525Z,2.16
2023-05-09T13:26:33.094Z,2.55
2023-05-09T13:27:36.546Z,2.09
2023-05-09T13:28:39.785Z,2.32
2023-05-09T13:29:43.271Z,2.34
2023-05-09T13:30:46.592Z,2.17
2023-05-09T13:31:49.905Z,2.18
2023-05-09T13:32:53.487Z,2.21
2023-05-09T13:33:56.903Z,2.16
2023-05-09T13:35:00.225Z,2.27
2023-05-09T13:36:03.502Z,2.45
2023-05-09T13:37:06.673Z,2.48
2023-05-09T13:38:09.937Z,2.34
2023-05-09T13:39:13.216Z,2.51
2023-05-09T13:40:16.861Z,2.62
2023-05-09T13:41:24.591Z,2.45
2023-05-09T13:42:28.865Z,2.13
2023-05-09T13:43:32.095Z,2.42
2023-05-09T13:44:35.436Z,2.17
2023-05-09T13:45:38.749Z,2.47
2023-05-09T13:46:42.381Z,2.27
2023-05-09T13:47:46.371Z,2.37
2023-05-09T13:48:49.689Z,2.70
2023-05-09T13:49:53.367Z,2.30
2023-05-09T13:50:58.413Z,2.19
2023-05-09T13:52:01.722Z,2.16
2023-05-09T13:53:05.356Z,2.41
2023-05-09T13:54:13.347Z,2.17
2023-05-09T13:55:16.733Z,2.32
2023-05-09T13:56:20.275Z,2.15
2023-05-09T13:57:23.518Z,2.37
2023-05-09T13:58:26.715Z,2.12
2023-05-09T13:59:30.675Z,2.19
2023-05-09T14:00:34.631Z,1.94
2023-05-09T14:01:38.166Z,1.99
2023-05-09T14:02:42.018Z,2.25
2023-05-09T14:03:45.497Z,2.03
2023-05-09T14:04:49.125Z,2.05
2023-05-09T14:05:52.499Z,2.38
2023-05-09T14:06:59.675Z,2.47
2023-05-09T14:08:02.861Z,2.01
2023-05-09T14:09:06.146Z,2.17
2023-05-09T14:10:11.808Z,1.97
2023-05-09T14:11:15.637Z,2.45
2023-05-09T14:12:20.482Z,2.13
2023-05-09T14:13:23.827Z,2.46
2023-05-09T14:14:27.170Z,2.47
2023-05-09T14:15:30.658Z,2.06
2023-05-09T14:16:33.998Z,2.33
2023-05-09T14:17:37.476Z,2.38
2023-05-09T14:18:40.709Z,1.94
2023-05-09T14:19:43.992Z,2.17
2023-05-09T14:20:47.182Z,2.13
2023-05-09T14:21:50.428Z,2.29
2023-05-09T14:22:55.768Z,2.36